sensor_id;sensor_type;location;lat;lon;timestamp;temperature;humidity
14144;DHT22;7152;48.348;10.980;2024-01-25T17:46:18;5.90;99.90
14144;DHT22;7152;48.348;10.980;2024-01-25T17:48:44;5.80;99.90
14144;DHT22;7152;48.348;10.980;2024-01-25T17:51:11;5.80;99.90
14144;DHT22;7152;48.348;10.980;2024-01-25T17:53:38;5.90;99.90
14144;DHT22;7152;48.348;10.980;2024-01-25T17:56:05;5.80;99.90
14144;DHT22;7152;48.348;10.980;2024-01-25T17:58:31;5.90;99.90
14144;DHT22;7152;48.348;10.980;2024-01-25T18:00:56;5.90;99.90
14144;DHT22;7152;48.348;10.980;2024-01-25T18:03:22;5.90;99.90
14144;DHT22;7152;48.348;10.980;2024-01-25T18:05:48;5.90;99.90
14144;DHT22;7152;48.348;10.980;2024-01-25T18:08:14;6.00;99.90
14144;DHT22;7152;48.348;10.980;2024-01-25T18:10:40;6.00;99.90
14144;DHT22;7152;48.348;10.980;2024-01-25T18:13:07;6.00;99.90
14144;DHT22;7152;48.348;10.980;2024-01-25T18:15:33;6.10;99.90
14144;DHT22;7152;48.348;10.980;2024-01-25T18:17:59;6.10;99.90
14144;DHT22;7152;48.348;10.980;2024-01-25T18:20:25;6.10;99.90
14144;DHT22;7152;48.348;10.980;2024-01-25T18:22:51;6.20;99.90
14144;DHT22;7152;48.348;10.980;2024-01-25T18:25:17;6.30;99.90
14144;DHT22;7152;48.348;10.980;2024-01-25T18:27:42;6.40;99.90
14144;DHT22;7152;48.348;10.980;2024-01-25T18:30:09;6.40;99.90
14144;DHT22;7152;48.348;10.980;2024-01-25T18:32:35;6.50;99.90
14144;DHT22;7152;48.348;10.980;2024-01-25T18:35:01;6.60;99.90
14144;DHT22;7152;48.348;10.980;2024-01-25T18:37:27;6.60;99.90
14144;DHT22;7152;48.348;10.980;2024-01-25T18:39:52;6.60;99.90
14144;DHT22;7152;48.348;10.980;2024-01-25T18:42:18;6.70;99.90
14144;DHT22;7152;48.348;10.980;2024-01-25T18:44:44;6.70;99.90
14144;DHT22;7152;48.348;10.980;2024-01-25T18:47:10;6.80;99.90
14144;DHT22;7152;48.348;10.980;2024-01-25T18:49:37;6.80;99.90
14144;DHT22;7152;48.348;10.980;2024-01-25T18:52:04;6.90;99.90
14144;DHT22;7152;48.348;10.980;2024-01-25T18:54:30;6.90;99.90
14144;DHT22;7152;48.348;10.980;2024-01-25T18:56:57;6.90;99.90
14144;DHT22;7152;48.348;10.980;2024-01-25T18:59:23;7.00;99.90
14144;DHT22;7152;48.348;10.980;2024-01-25T19:01:53;7.10;99.90
14144;DHT22;7152;48.348;10.980;2024-01-25T19:04:20;7.10;99.90
14144;DHT22;7152;48.348;10.980;2024-01-25T19:06:52;7.20;99.90
14144;DHT22;7152;48.348;10.980;2024-01-25T19:09:22;7.20;99.90
14144;DHT22;7152;48.348;10.980;2024-01-25T19:11:50;7.20;99.90
14144;DHT22;7152;48.348;10.980;2024-01-25T19:14:17;7.20;99.90
14144;DHT22;7152;48.348;10.980;2024-01-25T19:16:43;7.20;99.90
14144;DHT22;7152;48.348;10.980;2024-01-25T19:19:10;7.20;99.90
14144;DHT22;7152;48.348;10.980;2024-01-25T19:21:36;7.20;99.90
14144;DHT22;7152;48.348;10.980;2024-01-25T19:24:03;7.20;99.90
14144;DHT22;7152;48.348;10.980;2024-01-25T19:26:29;7.30;99.90
14144;DHT22;7152;48.348;10.980;2024-01-25T19:28:58;7.30;99.90
14144;DHT22;7152;48.348;10.980;2024-01-25T19:31:24;7.30;99.90
14144;DHT22;7152;48.348;10.980;2024-01-25T19:33:51;7.30;99.90
14144;DHT22;7152;48.348;10.980;2024-01-25T19:36:17;7.20;99.90
14144;DHT22;7152;48.348;10.980;2024-01-25T19:38:43;7.30;99.90
14144;DHT22;7152;48.348;10.980;2024-01-25T19:41:10;7.30;99.90
14144;DHT22;7152;48.348;10.980;2024-01-25T19:43:37;7.30;99.90
14144;DHT22;7152;48.348;10.980;2024-01-25T19:46:03;7.40;99.90
14144;DHT22;7152;48.348;10.980;2024-01-25T19:48:29;7.40;99.90
14144;DHT22;7152;48.348;10.980;2024-01-25T19:50:55;7.50;99.90
14144;DHT22;7152;48.348;10.980;2024-01-25T19:53:23;7.50;99.90
14144;DHT22;7152;48.348;10.980;2024-01-25T19:55:49;7.50;99.90
14144;DHT22;7152;48.348;10.980;2024-01-25T19:58:15;7.60;99.90
14144;DHT22;7152;48.348;10.980;2024-01-25T20:00:42;7.60;99.90
14144;DHT22;7152;48.348;10.980;2024-01-25T20:03:08;7.60;99.90
14144;DHT22;7152;48.348;10.980;2024-01-25T20:05:35;7.60;99.90
14144;DHT22;7152;48.348;10.980;2024-01-25T20:08:01;7.60;99.90
14144;DHT22;7152;48.348;10.980;2024-01-25T20:10:27;7.60;99.90
14144;DHT22;7152;48.348;10.980;2024-01-25T20:12:53;7.70;99.90
14144;DHT22;7152;48.348;10.980;2024-01-25T20:15:19;7.70;99.90
14144;DHT22;7152;48.348;10.980;2024-01-25T20:17:45;7.70;99.90
14144;DHT22;7152;48.348;10.980;2024-01-25T20:20:11;7.80;99.90
14144;DHT22;7152;48.348;10.980;2024-01-25T20:22:38;7.80;99.90
14144;DHT22;7152;48.348;10.980;2024-01-25T20:25:07;7.80;99.90
14144;DHT22;7152;48.348;10.980;2024-01-25T20:27:33;7.90;99.90
14144;DHT22;7152;48.348;10.980;2024-01-25T20:29:59;7.90;99.90
14144;DHT22;7152;48.348;10.980;2024-01-25T20:32:26;8.00;99.90
14144;DHT22;7152;48.348;10.980;2024-01-25T20:34:52;8.00;99.90
14144;DHT22;7152;48.348;10.980;2024-01-25T20:37:18;8.00;99.90
14144;DHT22;7152;48.348;10.980;2024-01-25T20:39:44;8.00;99.90
14144;DHT22;7152;48.348;10.980;2024-01-25T20:42:10;8.00;99.90
14144;DHT22;7152;48.348;10.980;2024-01-25T20:44:38;8.00;99.90
14144;DHT22;7152;48.348;10.980;2024-01-25T20:47:04;8.00;99.90
14144;DHT22;7152;48.348;10.980;2024-01-25T20:49:30;8.10;99.90
14144;DHT22;7152;48.348;10.980;2024-01-25T20:51:56;8.10;99.90
14144;DHT22;7152;48.348;10.980;2024-01-25T20:54:22;8.10;99.90
14144;DHT22;7152;48.348;10.980;2024-01-25T20:56:48;8.10;99.90
14144;DHT22;7152;48.348;10.980;2024-01-25T20:59:13;8.10;99.90
14144;DHT22;7152;48.348;10.980;2024-01-25T21:01:39;8.10;99.90
14144;DHT22;7152;48.348;10.980;2024-01-25T21:04:06;8.10;99.90
14144;DHT22;7152;48.348;10.980;2024-01-25T21:06:32;8.10;99.90
14144;DHT22;7152;48.348;10.980;2024-01-25T21:08:58;8.10;99.90
14144;DHT22;7152;48.348;10.980;2024-01-25T21:11:24;8.10;99.90
14144;DHT22;7152;48.348;10.980;2024-01-25T21:13:51;8.10;99.90
14144;DHT22;7152;48.348;10.980;2024-01-25T21:16:18;8.20;99.90
14144;DHT22;7152;48.348;10.980;2024-01-25T21:18:44;8.20;99.90
14144;DHT22;7152;48.348;10.980;2024-01-25T21:21:10;8.20;99.90
14144;DHT22;7152;48.348;10.980;2024-01-25T21:23:41;8.20;99.90
14144;DHT22;7152;48.348;10.980;2024-01-25T21:26:07;8.20;99.90
14144;DHT22;7152;48.348;10.980;2024-01-25T21:28:33;8.20;99.90
14144;DHT22;7152;48.348;10.980;2024-01-25T21:30:59;8.20;99.90
14144;DHT22;7152;48.348;10.980;2024-01-25T21:33:25;8.10;99.90
14144;DHT22;7152;48.348;10.980;2024-01-25T21:35:50;8.10;99.90
14144;DHT22;7152;48.348;10.980;2024-01-25T21:38:16;8.10;99.90
14144;DHT22;7152;48.348;10.980;2024-01-25T21:40:42;8.00;99.90
14144;DHT22;7152;48.348;10.980;2024-01-25T21:43:08;8.00;99.90
14144;DHT22;7152;48.348;10.980;2024-01-25T21:45:34;8.00;99.90
14144;DHT22;7152;48.348;10.980;2024-01-25T21:48:00;8.00;99.90
14144;DHT22;7152;48.348;10.980;2024-01-25T21:50:32;8.00;99.90
14144;DHT22;7152;48.348;10.980;2024-01-25T21:52:57;8.00;99.90
14144;DHT22;7152;48.348;10.980;2024-01-25T21:55:23;8.00;99.90
14144;DHT22;7152;48.348;10.980;2024-01-25T21:57:49;8.00;99.90
14144;DHT22;7152;48.348;10.980;2024-01-25T22:00:16;7.90;99.90
14144;DHT22;7152;48.348;10.980;2024-01-25T22:02:42;7.90;99.90
14144;DHT22;7152;48.348;10.980;2024-01-25T22:05:08;7.90;99.90
14144;DHT22;7152;48.348;10.980;2024-01-25T22:07:34;7.90;99.90
14144;DHT22;7152;48.348;10.980;2024-01-25T22:10:01;7.90;99.90
14144;DHT22;7152;48.348;10.980;2024-01-25T22:12:27;7.90;99.90
14144;DHT22;7152;48.348;10.980;2024-01-25T22:14:53;7.90;99.90
14144;DHT22;7152;48.348;10.980;2024-01-25T22:17:18;7.90;99.90
14144;DHT22;7152;48.348;10.980;2024-01-25T22:19:44;7.90;99.90
14144;DHT22;7152;48.348;10.980;2024-01-25T22:22:10;7.80;99.90
14144;DHT22;7152;48.348;10.980;2024-01-25T22:24:36;7.90;99.90
14144;DHT22;7152;48.348;10.980;2024-01-25T22:27:02;7.80;99.90
14144;DHT22;7152;48.348;10.980;2024-01-25T22:29:28;7.80;99.90
